Time;durP1;ratioP1;P1;durP2;ratioP2;P2;SDS_P1;SDS_P2;PMS_P1;PMS_P2;Temp;Humidity;BMP_temperature;BMP_pressure;BME280_temperature;BME280_humidity;BME280_pressure;Samples;Min_cycle;Max_cycle;Signal;HPM_P1;HPM_P2
2024/01/22 00:02:08;;;;;;;0.10;0.10;;;;;;;10.51;100.00;98672.34;4973856;28;20095;-78
2024/01/22 00:04:34;;;;;;;0.00;0.00;;;;;;;10.50;100.00;98640.69;4978341;28;20034;-77
2024/01/22 00:07:01;;;;;;;0.00;0.00;;;;;;;10.59;100.00;98657.94;4945595;28;20030;-78
2024/01/22 00:09:34;;;;;;;0.00;0.00;;;;;;;10.50;100.00;98609.81;4962402;28;20062;-78
2024/01/22 00:11:59;;;;;;;0.00;0.00;;;;;;;10.52;100.00;98643.91;4976292;28;20026;-79
2024/01/22 00:14:25;;;;;;;0.00;0.00;;;;;;;10.60;100.00;98658.75;4960074;28;20031;-80
2024/01/22 00:16:50;;;;;;;0.00;0.00;;;;;;;10.50;100.00;98643.41;4965572;28;20116;-79
2024/01/22 00:19:16;;;;;;;0.00;0.00;;;;;;;10.51;100.00;98655.94;4959419;28;20447;-77
2024/01/22 00:21:44;;;;;;;0.00;0.00;;;;;;;10.56;100.00;98597.66;4983916;28;20011;-77
2024/01/22 00:24:09;;;;;;;0.00;0.00;;;;;;;10.61;100.00;98611.97;4974950;28;20031;-76
2024/01/22 00:26:35;;;;;;;0.00;0.00;;;;;;;10.73;100.00;98602.41;4945282;28;20062;-76
2024/01/22 00:29:00;;;;;;;0.00;0.00;;;;;;;10.71;100.00;98670.28;4990340;28;20014;-77
2024/01/22 00:31:26;;;;;;;0.00;0.00;;;;;;;10.73;100.00;98635.22;4969956;28;20023;-75
2024/01/22 00:33:51;;;;;;;0.00;0.00;;;;;;;10.61;100.00;98643.97;4979966;28;20037;-75
2024/01/22 00:36:17;;;;;;;0.00;0.00;;;;;;;10.59;100.00;98597.81;4953354;28;20030;-75
2024/01/22 00:38:43;;;;;;;0.00;0.00;;;;;;;10.65;100.00;98618.44;4966612;28;20412;-76
2024/01/22 00:41:11;;;;;;;0.00;0.00;;;;;;;10.71;100.00;98642.94;4973043;28;20042;-75
2024/01/22 00:43:37;;;;;;;0.00;0.00;;;;;;;10.69;100.00;98612.34;4960055;28;20023;-75
2024/01/22 00:46:03;;;;;;;0.00;0.00;;;;;;;10.67;100.00;98642.72;4958234;28;20035;-76
2024/01/22 00:48:28;;;;;;;0.00;0.00;;;;;;;10.67;100.00;98620.06;4966882;28;20110;-76
2024/01/22 00:50:54;;;;;;;0.00;0.00;;;;;;;10.62;100.00;98612.81;4964764;28;20035;-75
2024/01/22 00:53:19;;;;;;;0.00;0.00;;;;;;;10.76;100.00;98623.66;4997378;28;20025;-75
2024/01/22 00:55:45;;;;;;;0.00;0.00;;;;;;;10.83;100.00;98613.09;4964293;28;20026;-75
2024/01/22 00:58:12;;;;;;;0.05;0.05;;;;;;;10.92;100.00;98690.53;4963421;28;20035;-76
2024/01/22 01:00:38;;;;;;;0.00;0.00;;;;;;;10.98;100.00;98601.78;4981179;28;20045;-76
2024/01/22 01:03:06;;;;;;;0.00;0.00;;;;;;;11.05;100.00;98653.28;4973763;28;20117;-74
2024/01/22 01:05:32;;;;;;;0.00;0.00;;;;;;;11.08;100.00;98629.97;4960589;28;20033;-76
2024/01/22 01:08:07;;;;;;;0.00;0.00;;;;;;;10.99;100.00;98638.13;4975877;28;20138;-74
2024/01/22 01:10:32;;;;;;;0.00;0.00;;;;;;;11.06;100.00;98637.69;4982408;28;20469;-74
2024/01/22 01:12:58;;;;;;;0.00;0.00;;;;;;;10.97;100.00;98648.59;4960640;28;20050;-77
2024/01/22 01:15:24;;;;;;;0.00;0.00;;;;;;;11.00;100.00;98629.59;4987280;28;20022;-75
2024/01/22 01:17:49;;;;;;;0.00;0.00;;;;;;;10.96;100.00;98634.09;4956326;28;20033;-74
2024/01/22 01:20:15;;;;;;;0.00;0.00;;;;;;;10.82;100.00;98633.38;4962479;28;20030;-74
2024/01/22 01:22:40;;;;;;;0.00;0.00;;;;;;;10.72;100.00;98658.19;4941763;28;20448;-76
2024/01/22 01:25:06;;;;;;;0.00;0.00;;;;;;;10.71;100.00;98671.06;4947630;28;20496;-75
2024/01/22 01:27:31;;;;;;;0.00;0.00;;;;;;;10.68;100.00;98684.56;4989707;28;20065;-75
2024/01/22 01:29:59;;;;;;;0.00;0.00;;;;;;;10.54;100.00;98666.28;4962861;28;20520;-74
2024/01/22 01:32:32;;;;;;;0.00;0.00;;;;;;;10.47;100.00;98704.16;4960453;28;20047;-74
2024/01/22 01:34:58;;;;;;;0.00;0.00;;;;;;;10.47;100.00;98704.16;4976615;28;20031;-75
2024/01/22 01:37:23;;;;;;;0.00;0.00;;;;;;;10.34;100.00;98683.13;4984112;28;20365;-74
2024/01/22 01:39:48;;;;;;;0.00;0.00;;;;;;;10.28;100.00;98694.13;4942735;28;20037;-74
2024/01/22 01:42:14;;;;;;;0.00;0.00;;;;;;;10.19;100.00;98679.59;4956251;28;20042;-74
2024/01/22 01:44:39;;;;;;;0.00;0.00;;;;;;;10.09;100.00;98697.00;4981052;28;20787;-73
2024/01/22 01:47:05;;;;;;;0.00;0.00;;;;;;;9.90;100.00;98690.81;4966705;28;20096;-75
2024/01/22 01:49:31;;;;;;;0.00;0.00;;;;;;;9.79;100.00;98696.50;4975573;28;20371;-75
2024/01/22 01:51:57;;;;;;;0.00;0.00;;;;;;;9.76;100.00;98707.22;4956639;28;20027;-75
2024/01/22 01:54:24;;;;;;;0.00;0.00;;;;;;;9.72;100.00;98733.50;4982952;28;20738;-75
2024/01/22 01:56:50;;;;;;;0.00;0.00;;;;;;;9.72;100.00;98708.94;4961814;28;20381;-74
2024/01/22 01:59:17;;;;;;;0.00;0.00;;;;;;;9.78;100.00;98716.72;4958515;28;20026;-75
2024/01/22 02:01:42;;;;;;;0.00;0.00;;;;;;;9.83;100.00;98724.00;4971568;28;20090;-74
2024/01/22 02:04:07;;;;;;;0.00;0.00;;;;;;;9.89;100.00;98747.38;4979880;28;20661;-75
2024/01/22 02:06:34;;;;;;;0.00;0.00;;;;;;;10.02;100.00;98739.50;4972269;28;20053;-76
2024/01/22 02:09:00;;;;;;;0.00;0.00;;;;;;;10.12;100.00;98747.47;4944165;28;20058;-76
2024/01/22 02:11:25;;;;;;;0.00;0.00;;;;;;;10.21;100.00;98762.03;4982103;28;20041;-75
2024/01/22 02:13:52;;;;;;;0.00;0.00;;;;;;;10.24;100.00;98764.16;4973068;28;20066;-76
2024/01/22 02:16:18;;;;;;;0.00;0.00;;;;;;;10.27;100.00;98785.41;4973996;28;20110;-75
2024/01/22 02:18:44;;;;;;;0.10;0.10;;;;;;;10.18;100.00;98772.75;4959030;28;20057;-75
2024/01/22 02:21:10;;;;;;;0.00;0.00;;;;;;;10.02;100.00;98881.50;4968521;28;20011;-76
2024/01/22 02:23:35;;;;;;;0.00;0.00;;;;;;;10.16;100.00;98775.78;4957118;28;20045;-76
2024/01/22 02:26:03;;;;;;;0.00;0.00;;;;;;;10.17;100.00;98814.84;4983879;28;20030;-76
2024/01/22 02:28:31;;;;;;;0.10;0.10;;;;;;;10.24;100.00;98791.47;4965468;28;20023;-74
2024/01/22 02:30:57;;;;;;;0.00;0.00;;;;;;;10.24;100.00;98794.22;4957253;28;20722;-75
2024/01/22 02:33:22;;;;;;;0.00;0.00;;;;;;;10.20;100.00;98782.25;4965788;28;20056;-75
2024/01/22 02:35:47;;;;;;;0.10;0.10;;;;;;;10.20;100.00;98798.66;4968282;28;20031;-75
2024/01/22 02:38:13;;;;;;;0.00;0.00;;;;;;;10.06;100.00;98797.84;4970586;28;20050;-75
2024/01/22 02:40:38;;;;;;;0.00;0.00;;;;;;;10.00;100.00;98799.03;4958724;28;20046;-75
2024/01/22 02:43:04;;;;;;;0.00;0.00;;;;;;;9.90;100.00;98784.47;4940045;28;20595;-74
2024/01/22 02:45:29;;;;;;;0.00;0.00;;;;;;;9.88;100.00;98802.28;4996339;28;20504;-75
2024/01/22 02:47:55;;;;;;;0.00;0.00;;;;;;;9.77;100.00;98786.06;4959994;28;20672;-75
2024/01/22 02:50:20;;;;;;;0.00;0.00;;;;;;;9.77;100.00;98798.94;4966654;28;20011;-75
2024/01/22 02:52:46;;;;;;;0.00;0.00;;;;;;;9.70;100.00;98788.38;4969670;28;20033;-76
2024/01/22 02:55:11;;;;;;;0.00;0.00;;;;;;;9.66;100.00;98787.38;4974212;28;20933;-77
2024/01/22 02:57:36;;;;;;;0.00;0.00;;;;;;;9.65;100.00;98788.50;4971174;28;20548;-75
2024/01/22 03:00:03;;;;;;;0.10;0.10;;;;;;;9.59;100.00;98793.22;4955079;28;20118;-74
2024/01/22 03:02:28;;;;;;;0.00;0.00;;;;;;;9.63;100.00;98811.72;4947830;28;20058;-75
2024/01/22 03:04:54;;;;;;;0.00;0.00;;;;;;;9.66;100.00;98800.22;4957516;28;20042;-77
2024/01/22 03:07:19;;;;;;;0.00;0.00;;;;;;;9.53;100.00;98780.75;4964701;28;20026;-76
2024/01/22 03:09:44;;;;;;;0.00;0.00;;;;;;;9.67;100.00;98812.75;4959136;28;20019;-76
2024/01/22 03:12:10;;;;;;;0.00;0.00;;;;;;;9.63;100.00;98800.81;4966000;28;20022;-76
2024/01/22 03:14:36;;;;;;;0.00;0.00;;;;;;;9.58;100.00;98799.78;4977174;28;20377;-76
2024/01/22 03:17:02;;;;;;;0.00;0.00;;;;;;;9.60;100.00;98803.00;4972519;28;20015;-76
2024/01/22 03:19:27;;;;;;;0.00;0.00;;;;;;;9.56;100.00;98801.19;4966232;28;20499;-75
2024/01/22 03:21:53;;;;;;;0.00;0.00;;;;;;;9.49;100.00;98834.34;4963348;28;20025;-76
2024/01/22 03:24:19;;;;;;;0.00;0.00;;;;;;;9.50;100.00;98802.38;4967816;28;20031;-75
2024/01/22 03:26:45;;;;;;;0.00;0.00;;;;;;;9.40;100.00;98817.00;4962201;28;20030;-75
2024/01/22 03:29:13;;;;;;;0.00;0.00;;;;;;;9.47;100.00;98835.72;4942756;28;20499;-75
2024/01/22 03:31:38;;;;;;;0.00;0.00;;;;;;;9.51;100.00;98859.38;4953223;28;20022;-76
2024/01/22 03:34:03;;;;;;;0.00;0.00;;;;;;;9.51;100.00;98853.94;4940613;28;20445;-74
2024/01/22 03:36:29;;;;;;;0.00;0.00;;;;;;;9.48;100.00;98854.53;4959790;28;20034;-76
2024/01/22 03:38:54;;;;;;;0.00;0.00;;;;;;;9.51;100.00;98861.31;4976353;28;20038;-77
2024/01/22 03:41:23;;;;;;;0.00;0.00;;;;;;;9.51;100.00;98874.97;4970377;28;20038;-75
2024/01/22 03:43:53;;;;;;;0.00;0.00;;;;;;;9.52;100.00;98921.06;4960102;28;20086;-75
2024/01/22 03:46:18;;;;;;;0.00;0.00;;;;;;;9.38;100.00;98903.78;4986100;28;20038;-74
2024/01/22 03:48:44;;;;;;;0.00;0.00;;;;;;;9.15;100.00;98955.38;4945108;28;20026;-74
2024/01/22 03:51:09;;;;;;;0.00;0.00;;;;;;;8.94;100.00;98954.03;4990672;28;20038;-74
2024/01/22 03:53:35;;;;;;;0.00;0.00;;;;;;;8.79;100.00;98925.84;4973487;28;20214;-75
2024/01/22 03:56:05;;;;;;;0.00;0.00;;;;;;;8.71;100.00;98934.66;4946028;28;20382;-74
2024/01/22 03:58:31;;;;;;;0.00;0.00;;;;;;;8.61;100.00;98956.56;4972214;28;20030;-75
2024/01/22 04:00:56;;;;;;;0.00;0.00;;;;;;;8.35;100.00;98945.88;4943156;28;20034;-75
2024/01/22 04:03:23;;;;;;;0.10;0.10;;;;;;;8.32;100.00;98965.53;4957845;28;21823;-75
2024/01/22 04:05:48;;;;;;;0.00;0.00;;;;;;;8.12;100.00;98972.78;4939656;28;20039;-75
2024/01/22 04:08:13;;;;;;;0.00;0.00;;;;;;;8.05;100.00;98985.91;4976919;28;20042;-76
2024/01/22 04:10:39;;;;;;;0.00;0.00;;;;;;;7.92;100.00;98976.47;4953873;28;20034;-75
2024/01/22 04:13:06;;;;;;;0.00;0.00;;;;;;;7.97;100.00;98983.78;4965338;28;20037;-75
2024/01/22 04:15:31;;;;;;;0.00;0.00;;;;;;;8.00;100.00;98994.94;4969060;28;20096;-75
2024/01/22 04:17:59;;;;;;;0.00;0.00;;;;;;;7.98;100.00;98994.38;4958147;28;20659;-75
2024/01/22 04:20:26;;;;;;;0.00;0.00;;;;;;;7.94;100.00;99015.09;4970643;28;20061;-76
2024/01/22 04:22:51;;;;;;;0.10;0.10;;;;;;;7.94;100.00;98998.78;4976649;28;20023;-76
2024/01/22 04:25:17;;;;;;;0.00;0.00;;;;;;;8.00;100.00;99005.00;4969167;28;20029;-76
2024/01/22 04:27:42;;;;;;;0.00;0.00;;;;;;;8.02;100.00;99005.53;4949524;28;20050;-76
2024/01/22 04:30:08;;;;;;;0.00;0.00;;;;;;;7.98;100.00;98999.03;4930391;28;20066;-76
2024/01/22 04:32:34;;;;;;;0.00;0.00;;;;;;;7.99;100.00;99017.00;4956282;28;20057;-75
2024/01/22 04:34:59;;;;;;;0.00;0.00;;;;;;;7.99;100.00;99014.28;4968796;28;20092;-77
2024/01/22 04:37:25;;;;;;;0.10;0.10;;;;;;;7.96;100.00;99029.25;4938639;28;20050;-76
2024/01/22 04:39:51;;;;;;;0.10;0.10;;;;;;;7.81;100.00;99022.00;4972393;28;20036;-77
2024/01/22 04:42:20;;;;;;;0.00;0.00;;;;;;;7.79;100.00;99045.16;4937635;28;20553;-76
2024/01/22 04:44:46;;;;;;;0.00;0.00;;;;;;;7.76;100.00;99035.63;4955542;28;20034;-76
2024/01/22 04:47:12;;;;;;;0.00;0.00;;;;;;;7.75;100.00;99058.50;4971841;28;20022;-76
2024/01/22 04:49:38;;;;;;;0.00;0.00;;;;;;;7.63;100.00;99039.78;4969016;28;20022;-76
2024/01/22 04:52:04;;;;;;;0.00;0.00;;;;;;;7.69;100.00;99046.03;4967767;28;20026;-77
2024/01/22 04:54:29;;;;;;;0.10;0.10;;;;;;;7.75;100.00;99054.97;4953464;28;20057;-76
2024/01/22 04:56:54;;;;;;;0.00;0.00;;;;;;;7.73;100.00;99073.50;4953271;28;20034;-75
2024/01/22 04:59:20;;;;;;;0.00;0.00;;;;;;;7.57;100.00;99064.59;4938166;28;20057;-75
2024/01/22 05:01:46;;;;;;;0.00;0.00;;;;;;;7.49;100.00;99069.53;4986377;28;20023;-75
2024/01/22 05:04:12;;;;;;;0.00;0.00;;;;;;;7.43;100.00;99076.09;4964823;28;20026;-76
2024/01/22 05:06:37;;;;;;;0.00;0.00;;;;;;;7.50;100.00;99086.66;4957011;28;20041;-77
2024/01/22 05:09:04;;;;;;;0.00;0.00;;;;;;;7.45;100.00;99101.09;4954606;28;20030;-77
2024/01/22 05:11:30;;;;;;;0.00;0.00;;;;;;;7.38;100.00;99105.19;4956995;28;20034;-75
2024/01/22 05:13:58;;;;;;;0.00;0.00;;;;;;;7.31;100.00;99121.81;4953699;28;20023;-76
2024/01/22 05:16:23;;;;;;;0.00;0.00;;;;;;;7.25;100.00;99120.19;4971597;28;21583;-77
2024/01/22 05:18:51;;;;;;;0.00;0.00;;;;;;;7.21;100.00;99133.50;4942488;28;20035;-76
2024/01/22 05:21:17;;;;;;;0.00;0.00;;;;;;;7.08;100.00;99134.91;4977207;28;20022;-76
2024/01/22 05:23:42;;;;;;;0.00;0.00;;;;;;;6.92;100.00;99120.53;4992417;28;20362;-77
2024/01/22 05:26:08;;;;;;;0.00;0.00;;;;;;;6.99;100.00;99139.25;4950676;28;20050;-76
2024/01/22 05:28:36;;;;;;;0.00;0.00;;;;;;;6.90;100.00;99124.59;4956429;28;20125;-77
2024/01/22 05:31:02;;;;;;;0.00;0.00;;;;;;;6.79;100.00;99130.03;4969348;28;20026;-77
2024/01/22 05:33:29;;;;;;;0.00;0.00;;;;;;;6.63;100.00;99126.50;4962473;28;20678;-76
2024/01/22 05:35:55;;;;;;;0.00;0.00;;;;;;;6.74;100.00;99151.78;4977407;28;20057;-76
2024/01/22 05:38:21;;;;;;;0.00;0.00;;;;;;;6.67;100.00;99159.38;4944843;28;20105;-76
2024/01/22 05:40:47;;;;;;;0.00;0.00;;;;;;;6.65;100.00;99153.41;4977412;28;20481;-75
2024/01/22 05:43:13;;;;;;;0.00;0.00;;;;;;;6.66;100.00;99184.94;4972075;28;20034;-77
2024/01/22 05:45:38;;;;;;;0.00;0.00;;;;;;;6.60;100.00;99175.97;4951671;28;20034;-76
2024/01/22 05:48:04;;;;;;;0.00;0.00;;;;;;;6.58;100.00;99185.44;4955127;28;20066;-76
2024/01/22 05:50:29;;;;;;;0.00;0.00;;;;;;;6.56;100.00;99198.50;4956682;28;20037;-76
2024/01/22 05:52:55;;;;;;;0.00;0.00;;;;;;;6.56;100.00;99203.94;4953038;28;20490;-76
2024/01/22 05:55:21;;;;;;;0.00;0.00;;;;;;;6.44;100.00;99199.56;4956490;28;20114;-76
2024/01/22 05:57:47;;;;;;;0.00;0.00;;;;;;;6.40;100.00;99220.19;4976448;28;20435;-76
2024/01/22 06:00:13;;;;;;;0.00;0.00;;;;;;;6.36;100.00;99232.66;4943037;28;20060;-76
2024/01/22 06:02:40;;;;;;;0.10;0.10;;;;;;;6.38;100.00;99227.78;4934693;28;20031;-76
2024/01/22 06:05:06;;;;;;;0.00;0.00;;;;;;;6.33;100.00;99238.63;4970148;28;20060;-76
2024/01/22 06:07:31;;;;;;;0.00;0.00;;;;;;;6.32;100.00;99238.91;4956075;28;20022;-76
2024/01/22 06:09:57;;;;;;;0.00;0.00;;;;;;;6.27;100.00;99258.72;4951465;28;20488;-75
2024/01/22 06:12:22;;;;;;;0.00;0.00;;;;;;;6.13;100.00;99244.00;4970582;28;20461;-76
2024/01/22 06:14:47;;;;;;;0.00;0.00;;;;;;;6.22;100.00;99267.66;4968186;28;20239;-76
2024/01/22 06:17:13;;;;;;;0.00;0.00;;;;;;;6.17;100.00;99293.97;4957908;28;20080;-76
2024/01/22 06:19:45;;;;;;;0.00;0.00;;;;;;;6.15;100.00;99290.66;4941539;28;21060;-75
2024/01/22 06:22:12;;;;;;;0.00;0.00;;;;;;;6.09;100.00;99287.94;4965450;28;20119;-77
2024/01/22 06:24:38;;;;;;;0.00;0.00;;;;;;;6.02;100.00;99279.22;4969917;28;20034;-76
2024/01/22 06:27:06;;;;;;;0.10;0.10;;;;;;;6.10;100.00;99292.31;4949109;28;20261;-75
2024/01/22 06:29:35;;;;;;;0.00;0.00;;;;;;;6.09;100.00;99309.66;4956913;28;20507;-75
2024/01/22 06:32:01;;;;;;;0.00;0.00;;;;;;;6.07;100.00;99311.81;4964536;28;20039;-76
2024/01/22 06:34:26;;;;;;;0.00;0.00;;;;;;;6.01;100.00;99315.59;4969182;28;20142;-76
2024/01/22 06:36:52;;;;;;;0.00;0.00;;;;;;;5.96;100.00;99323.69;4974241;28;20093;-77
2024/01/22 06:39:17;;;;;;;0.00;0.00;;;;;;;5.98;100.00;99339.72;4959701;28;20035;-76
2024/01/22 06:41:43;;;;;;;0.00;0.00;;;;;;;6.00;100.00;99343.81;4947490;28;20872;-75
2024/01/22 06:44:09;;;;;;;0.00;0.00;;;;;;;5.99;100.00;99353.03;4971353;28;20062;-77
2024/01/22 06:46:34;;;;;;;0.00;0.00;;;;;;;6.02;100.00;99362.56;4959238;28;20058;-75
2024/01/22 06:49:00;;;;;;;0.00;0.00;;;;;;;5.96;100.00;99358.97;4970966;28;20047;-77
2024/01/22 06:51:25;;;;;;;0.00;0.00;;;;;;;5.96;100.00;99375.22;4938052;28;20086;-75
2024/01/22 06:53:51;;;;;;;0.10;0.10;;;;;;;5.85;100.00;99357.25;4965606;28;20031;-75
2024/01/22 06:56:16;;;;;;;0.00;0.00;;;;;;;5.93;100.00;99371.16;4928731;28;20027;-75
2024/01/22 06:58:42;;;;;;;0.00;0.00;;;;;;;5.94;100.00;99382.81;4938312;28;20351;-75
2024/01/22 07:01:07;;;;;;;0.00;0.00;;;;;;;5.94;100.00;99382.81;4961470;28;20058;-76
2024/01/22 07:03:33;;;;;;;0.00;0.00;;;;;;;5.66;100.00;99349.50;4955366;28;20038;-76
2024/01/22 07:05:58;;;;;;;0.00;0.00;;;;;;;5.79;100.00;99388.94;4975085;28;20032;-76
2024/01/22 07:08:24;;;;;;;0.00;0.00;;;;;;;5.77;100.00;99389.22;4983092;28;20493;-77
2024/01/22 07:10:49;;;;;;;0.00;0.00;;;;;;;5.70;100.00;99385.88;4980361;28;20018;-77
2024/01/22 07:13:15;;;;;;;0.00;0.00;;;;;;;5.69;100.00;99389.66;4952859;28;20029;-78
2024/01/22 07:15:40;;;;;;;0.00;0.00;;;;;;;5.76;100.00;99403.84;4959464;28;20027;-76
2024/01/22 07:18:06;;;;;;;0.00;0.00;;;;;;;5.65;100.00;99390.44;4976779;28;20026;-76
2024/01/22 07:20:32;;;;;;;0.00;0.00;;;;;;;5.83;100.00;99421.81;4970143;28;20462;-76
2024/01/22 07:22:58;;;;;;;0.00;0.00;;;;;;;5.91;100.00;99427.59;4969747;28;20050;-77
2024/01/22 07:25:26;;;;;;;0.10;0.10;;;;;;;6.10;100.00;99425.31;4974604;28;20053;-75
2024/01/22 07:27:51;;;;;;;0.00;0.00;;;;;;;6.21;100.00;99439.75;4953390;28;20469;-76
2024/01/22 07:30:19;;;;;;;0.00;0.00;;;;;;;6.29;100.00;99433.00;4968727;28;20023;-77
2024/01/22 07:32:45;;;;;;;0.00;0.00;;;;;;;6.25;100.00;99438.16;4949249;28;20027;-76
2024/01/22 07:35:13;;;;;;;0.00;0.00;;;;;;;6.26;100.00;99450.66;4980388;28;20103;-77
2024/01/22 07:37:41;;;;;;;0.00;0.00;;;;;;;6.21;100.00;99464.19;4982907;28;20049;-76
2024/01/22 07:40:09;;;;;;;0.10;0.10;;;;;;;6.06;100.00;99455.91;4981296;28;20019;-77
2024/01/22 07:42:37;;;;;;;0.00;0.00;;;;;;;6.11;100.00;99474.97;4967826;28;20026;-75
2024/01/22 07:45:05;;;;;;;0.00;0.00;;;;;;;6.06;100.00;99473.03;4951157;28;20035;-76
2024/01/22 07:47:35;;;;;;;0.00;0.00;;;;;;;6.09;100.00;99483.38;4968702;28;20061;-75
2024/01/22 07:50:01;;;;;;;0.00;0.00;;;;;;;6.06;100.00;99483.91;4979130;28;20034;-76
2024/01/22 07:52:27;;;;;;;0.00;0.00;;;;;;;6.10;100.00;99495.03;4966601;28;20069;-77
2024/01/22 07:54:53;;;;;;;0.00;0.00;;;;;;;6.04;100.00;99491.47;4939983;28;20613;-76
2024/01/22 07:57:18;;;;;;;0.00;0.00;;;;;;;5.97;100.00;99512.56;4971188;28;20035;-76
2024/01/22 07:59:44;;;;;;;0.10;0.10;;;;;;;5.89;100.00;99510.31;4953557;28;20026;-77
2024/01/22 08:02:12;;;;;;;0.00;0.00;;;;;;;5.88;100.00;99514.91;4967335;28;20155;-78
2024/01/22 08:04:38;;;;;;;0.00;0.00;;;;;;;5.78;100.00;99514.81;4980782;28;20013;-79
2024/01/22 08:07:03;;;;;;;0.10;0.10;;;;;;;5.74;100.00;99519.94;4955943;28;20396;-78
2024/01/22 08:09:38;;;;;;;0.00;0.00;;;;;;;5.91;100.00;99535.28;4953316;28;20035;-77
2024/01/22 08:12:05;;;;;;;0.00;0.00;;;;;;;5.93;100.00;99549.44;4952824;28;20034;-78
2024/01/22 08:14:31;;;;;;;0.00;0.00;;;;;;;6.00;100.00;99560.94;4966579;28;21325;-79
2024/01/22 08:16:59;;;;;;;0.00;0.00;;;;;;;5.99;100.00;99524.00;4965423;28;20038;-78
2024/01/22 08:19:26;;;;;;;0.00;0.00;;;;;;;6.36;100.00;99553.09;4969000;28;20027;-77
2024/01/22 08:21:52;;;;;;;0.00;0.00;;;;;;;6.62;100.00;99559.53;4971195;28;20034;-78
2024/01/22 08:24:18;;;;;;;0.00;0.00;;;;;;;6.80;100.00;99558.31;4957746;28;20038;-75
2024/01/22 08:26:43;;;;;;;0.10;0.10;;;;;;;7.02;100.00;99561.94;4964492;28;20076;-77
2024/01/22 08:29:08;;;;;;;0.10;0.10;;;;;;;7.16;100.00;99571.28;4957676;28;20030;-77
2024/01/22 08:31:34;;;;;;;0.00;0.00;;;;;;;7.05;100.00;99564.94;4972967;28;20026;-77
2024/01/22 08:34:03;;;;;;;0.00;0.00;;;;;;;7.05;100.00;99575.81;4942605;28;20461;-78
2024/01/22 08:36:28;;;;;;;0.00;0.00;;;;;;;6.87;100.00;99568.94;4968889;28;20018;-78
2024/01/22 08:38:54;;;;;;;0.00;0.00;;;;;;;6.82;100.00;99569.72;4961326;28;20142;-78
2024/01/22 08:41:21;;;;;;;0.00;0.00;;;;;;;6.73;100.00;99574.03;4950514;28;20027;-78
2024/01/22 08:43:46;;;;;;;0.00;0.00;;;;;;;6.59;100.00;99572.81;4972977;28;20096;-79
2024/01/22 08:46:12;;;;;;;0.00;0.00;;;;;;;6.61;100.00;99593.22;4955991;28;20026;-77
2024/01/22 08:48:37;;;;;;;0.10;0.10;;;;;;;6.51;100.00;99576.81;4973457;28;20045;-77
2024/01/22 08:51:03;;;;;;;0.00;0.00;;;;;;;6.51;100.00;99581.44;4966012;28;20042;-77
2024/01/22 08:53:36;;;;;;;0.00;0.00;;;;;;;6.69;100.00;99593.78;4975291;28;20145;-78
2024/01/22 08:56:03;;;;;;;0.00;0.00;;;;;;;6.62;100.00;99572.31;4953886;28;20054;-78
2024/01/22 08:58:29;;;;;;;0.00;0.00;;;;;;;6.76;100.00;99570.78;4971573;28;20087;-77
2024/01/22 09:00:56;;;;;;;0.00;0.00;;;;;;;6.89;100.00;99598.56;4954770;28;20113;-76
2024/01/22 09:03:24;;;;;;;0.00;0.00;;;;;;;6.85;100.00;99576.53;4959576;28;20026;-79
2024/01/22 09:05:50;;;;;;;0.00;0.00;;;;;;;6.88;100.00;99589.59;4969436;28;20065;-78
2024/01/22 09:08:34;;;;;;;0.00;0.00;;;;;;;6.75;100.00;99566.41;4962694;28;20049;-78
2024/01/22 09:11:00;;;;;;;0.00;0.00;;;;;;;7.04;100.00;99608.72;4978489;28;20105;-78
2024/01/22 09:13:29;;;;;;;0.00;0.00;;;;;;;7.02;100.00;99594.56;4970097;28;20034;-79
2024/01/22 09:15:55;;;;;;;0.00;0.00;;;;;;;7.16;100.00;99626.47;4976950;28;20030;-79
2024/01/22 09:18:20;;;;;;;0.00;0.00;;;;;;;7.42;100.00;99609.47;4980321;28;20118;-78
2024/01/22 09:20:46;;;;;;;0.00;0.00;;;;;;;7.77;100.00;99622.41;4963381;28;20045;-78
2024/01/22 09:23:11;;;;;;;0.00;0.00;;;;;;;7.67;100.00;99619.66;4969975;28;20034;-78
2024/01/22 09:25:39;;;;;;;0.00;0.00;;;;;;;7.73;100.00;99637.63;4959010;28;20057;-79
2024/01/22 09:28:08;;;;;;;0.00;0.00;;;;;;;8.07;100.00;99648.06;4975157;28;20511;-80
2024/01/22 09:30:33;;;;;;;0.00;0.00;;;;;;;9.42;100.00;99636.09;4955353;28;20053;-79
2024/01/22 09:32:59;;;;;;;0.00;0.00;;;;;;;10.89;100.00;99667.50;4970688;28;20027;-78
2024/01/22 09:35:41;;;;;;;0.00;0.00;;;;;;;11.87;96.07;99644.56;4972089;28;20548;-77
2024/01/22 09:38:07;;;;;;;0.00;0.00;;;;;;;13.16;91.71;99665.41;4981361;28;20047;-77
2024/01/22 09:40:33;;;;;;;0.00;0.00;;;;;;;13.87;81.24;99694.59;4940811;28;20057;-78
2024/01/22 09:43:03;;;;;;;0.00;0.00;;;;;;;13.73;77.19;99673.44;4954799;28;20034;-78
2024/01/22 09:45:31;;;;;;;0.00;0.00;;;;;;;13.88;76.75;99666.00;4983449;28;20030;-78
2024/01/22 09:47:57;;;;;;;0.00;0.00;;;;;;;13.85;79.11;99664.69;4969978;28;20035;-78
2024/01/22 09:50:22;;;;;;;0.00;0.00;;;;;;;13.92;73.21;99680.78;4958382;28;20069;-76
2024/01/22 09:52:51;;;;;;;0.00;0.00;;;;;;;13.94;76.01;99673.84;4952808;28;20026;-77
2024/01/22 09:55:20;;;;;;;0.00;0.00;;;;;;;13.47;78.75;99683.31;4956669;28;20027;-78
2024/01/22 09:57:47;;;;;;;0.00;0.00;;;;;;;14.36;76.41;99681.22;4944839;28;20054;-77
2024/01/22 10:00:15;;;;;;;0.00;0.00;;;;;;;15.29;72.57;99685.34;4954811;28;20027;-77
2024/01/22 10:02:41;;;;;;;0.00;0.00;;;;;;;15.88;71.54;99701.66;4952642;28;20065;-78
2024/01/22 10:05:09;;;;;;;0.00;0.00;;;;;;;15.77;67.21;99709.38;4957934;28;20109;-77
2024/01/22 10:07:39;;;;;;;0.00;0.00;;;;;;;15.14;69.58;99698.38;4948651;28;20061;-76
2024/01/22 10:10:05;;;;;;;0.00;0.00;;;;;;;14.64;72.69;99702.03;4977901;28;20041;-77
2024/01/22 10:12:58;;;;;;;0.00;0.00;;;;;;;12.95;76.27;99702.56;4956947;28;20380;-77
2024/01/22 10:15:25;;;;;;;0.00;0.00;;;;;;;11.88;81.75;99714.72;4985355;28;20054;-79
2024/01/22 10:17:50;;;;;;;0.00;0.00;;;;;;;12.35;86.07;99723.19;4975198;28;20019;-78
2024/01/22 10:20:16;;;;;;;0.10;0.10;;;;;;;13.31;78.91;99719.25;4978415;28;20022;-78
2024/01/22 10:22:41;;;;;;;0.00;0.00;;;;;;;13.12;80.81;99721.22;4972346;28;20034;-78
2024/01/22 10:25:08;;;;;;;0.00;0.00;;;;;;;13.97;78.37;99738.38;4953799;28;20026;-77
2024/01/22 10:27:33;;;;;;;0.00;0.00;;;;;;;14.68;74.42;99735.25;4968542;28;20041;-77
2024/01/22 10:30:10;;;;;;;0.00;0.00;;;;;;;16.96;70.64;99758.34;4976464;28;20122;-78
2024/01/22 10:32:36;;;;;;;0.00;0.00;;;;;;;17.89;62.93;99745.78;4963603;28;20043;-78
2024/01/22 10:35:01;;;;;;;0.00;0.00;;;;;;;17.33;61.58;99747.75;4968266;28;20457;-78
2024/01/22 10:37:27;;;;;;;0.00;0.00;;;;;;;16.90;63.56;99744.69;4960274;28;20046;-79
2024/01/22 10:40:03;;;;;;;0.00;0.00;;;;;;;16.34;62.37;99760.19;4945639;28;20059;-78
2024/01/22 10:42:29;;;;;;;0.00;0.00;;;;;;;14.03;71.71;99770.16;4944215;28;20072;-79
2024/01/22 10:44:56;;;;;;;0.00;0.00;;;;;;;12.25;79.80;99768.03;4956215;28;20160;-77
2024/01/22 10:47:22;;;;;;;0.00;0.00;;;;;;;11.05;84.21;99801.44;4973918;28;20034;-78
2024/01/22 10:49:47;;;;;;;0.00;0.00;;;;;;;10.25;90.52;99795.84;4952692;28;20027;-79
2024/01/22 10:52:13;;;;;;;0.00;0.00;;;;;;;9.67;96.17;99795.44;4962760;28;20030;-78
2024/01/22 10:54:40;;;;;;;0.00;0.00;;;;;;;9.25;98.98;99797.38;4961731;28;20035;-78
2024/01/22 10:57:14;;;;;;;0.00;0.00;;;;;;;8.71;98.52;99801.38;4953776;28;20113;-78
2024/01/22 10:59:47;;;;;;;0.00;0.00;;;;;;;8.35;100.00;99798.50;4969955;28;20030;-78
2024/01/22 11:02:16;;;;;;;0.10;0.10;;;;;;;8.78;100.00;99810.13;4972912;28;20045;-78
2024/01/22 11:04:47;;;;;;;0.00;0.00;;;;;;;12.54;91.48;99819.19;4975748;28;20064;-78
2024/01/22 11:07:16;;;;;;;0.00;0.00;;;;;;;15.22;76.01;99817.97;4947724;28;20026;-77
2024/01/22 11:09:43;;;;;;;0.00;0.00;;;;;;;15.30;65.79;99813.63;4979149;28;20040;-77
2024/01/22 11:12:11;;;;;;;0.00;0.00;;;;;;;13.14;70.96;99842.50;4980206;28;20125;-79
2024/01/22 11:14:38;;;;;;;0.00;0.00;;;;;;;11.24;81.92;99818.81;4965534;28;20062;-78
2024/01/22 11:17:10;;;;;;;0.00;0.00;;;;;;;10.17;89.45;99823.72;4971190;28;20109;-79
2024/01/22 11:19:39;;;;;;;0.00;0.00;;;;;;;9.56;94.52;99860.13;4948339;28;20065;-77
2024/01/22 11:22:22;;;;;;;0.00;0.00;;;;;;;8.93;99.54;99833.06;4952663;28;20026;-76
2024/01/22 11:25:01;;;;;;;0.00;0.00;;;;;;;9.08;100.00;99871.28;4973806;28;20014;-83
2024/01/22 11:28:03;;;;;;;0.00;0.00;;;;;;;9.67;100.00;99844.59;4977082;28;20038;-78
2024/01/22 11:31:05;;;;;;;0.00;0.00;;;;;;;9.95;97.16;99846.72;4931951;28;20038;-83